sensor_id;sensor_type;location;lat;lon;timestamp;temperature;humidity
45096;DHT22;30858;51.108;8.068;2022-10-16T00:00:42;11.70;99.90
45096;DHT22;30858;51.108;8.068;2022-10-16T00:03:09;11.70;99.90
45096;DHT22;30858;51.108;8.068;2022-10-16T00:05:39;11.70;99.90
45096;DHT22;30858;51.108;8.068;2022-10-16T00:08:05;11.70;99.90
45096;DHT22;30858;51.108;8.068;2022-10-16T00:10:31;11.70;99.90
45096;DHT22;30858;51.108;8.068;2022-10-16T00:12:56;11.60;99.90
45096;DHT22;30858;51.108;8.068;2022-10-16T00:15:22;11.70;99.90
45096;DHT22;30858;51.108;8.068;2022-10-16T00:17:47;11.70;99.90
45096;DHT22;30858;51.108;8.068;2022-10-16T00:20:13;11.70;99.90
45096;DHT22;30858;51.108;8.068;2022-10-16T00:22:38;11.80;99.90
45096;DHT22;30858;51.108;8.068;2022-10-16T00:25:05;11.80;99.90
45096;DHT22;30858;51.108;8.068;2022-10-16T00:27:31;11.70;99.90
45096;DHT22;30858;51.108;8.068;2022-10-16T00:29:56;11.70;99.90
45096;DHT22;30858;51.108;8.068;2022-10-16T00:32:22;11.70;99.90
45096;DHT22;30858;51.108;8.068;2022-10-16T00:34:47;11.70;99.90
45096;DHT22;30858;51.108;8.068;2022-10-16T00:37:13;11.70;99.90
45096;DHT22;30858;51.108;8.068;2022-10-16T00:39:39;11.60;99.90
45096;DHT22;30858;51.108;8.068;2022-10-16T00:42:05;11.60;99.90
45096;DHT22;30858;51.108;8.068;2022-10-16T00:44:55;11.60;99.90
45096;DHT22;30858;51.108;8.068;2022-10-16T00:47:27;11.60;99.90
45096;DHT22;30858;51.108;8.068;2022-10-16T00:50:00;11.60;99.90
45096;DHT22;30858;51.108;8.068;2022-10-16T00:52:27;11.60;99.90
45096;DHT22;30858;51.108;8.068;2022-10-16T00:54:54;11.60;99.90
45096;DHT22;30858;51.108;8.068;2022-10-16T00:57:20;11.60;99.90
45096;DHT22;30858;51.108;8.068;2022-10-16T00:59:46;11.50;99.90
45096;DHT22;30858;51.108;8.068;2022-10-16T01:02:14;11.60;99.90
45096;DHT22;30858;51.108;8.068;2022-10-16T01:04:43;11.50;99.90
45096;DHT22;30858;51.108;8.068;2022-10-16T01:09:52;11.60;99.90
45096;DHT22;30858;51.108;8.068;2022-10-16T01:15:25;11.60;99.90
45096;DHT22;30858;51.108;8.068;2022-10-16T01:17:58;11.60;99.90
45096;DHT22;30858;51.108;8.068;2022-10-16T01:20:29;11.70;99.90
45096;DHT22;30858;51.108;8.068;2022-10-16T01:28:09;12.00;99.90
45096;DHT22;30858;51.108;8.068;2022-10-16T01:30:37;12.00;99.90
45096;DHT22;30858;51.108;8.068;2022-10-16T01:33:14;11.90;99.90
45096;DHT22;30858;51.108;8.068;2022-10-16T01:35:52;12.00;99.90
45096;DHT22;30858;51.108;8.068;2022-10-16T01:38:28;12.00;99.90
45096;DHT22;30858;51.108;8.068;2022-10-16T01:41:00;12.20;99.90
45096;DHT22;30858;51.108;8.068;2022-10-16T01:43:36;12.10;99.90
45096;DHT22;30858;51.108;8.068;2022-10-16T01:46:05;12.20;99.90
45096;DHT22;30858;51.108;8.068;2022-10-16T01:48:31;12.20;99.90
45096;DHT22;30858;51.108;8.068;2022-10-16T01:51:05;12.30;99.90
45096;DHT22;30858;51.108;8.068;2022-10-16T01:53:32;12.20;99.90
45096;DHT22;30858;51.108;8.068;2022-10-16T01:55:58;12.30;99.90
45096;DHT22;30858;51.108;8.068;2022-10-16T01:58:25;12.30;99.90
45096;DHT22;30858;51.108;8.068;2022-10-16T02:00:54;12.50;99.90
45096;DHT22;30858;51.108;8.068;2022-10-16T02:03:20;12.50;99.90
45096;DHT22;30858;51.108;8.068;2022-10-16T02:08:14;12.60;99.90
45096;DHT22;30858;51.108;8.068;2022-10-16T02:10:40;12.50;99.90
45096;DHT22;30858;51.108;8.068;2022-10-16T02:13:17;12.60;99.90
45096;DHT22;30858;51.108;8.068;2022-10-16T02:15:44;12.60;99.90
45096;DHT22;30858;51.108;8.068;2022-10-16T02:18:10;12.40;99.90
45096;DHT22;30858;51.108;8.068;2022-10-16T02:23:29;12.50;99.90
45096;DHT22;30858;51.108;8.068;2022-10-16T02:26:01;12.40;99.90
45096;DHT22;30858;51.108;8.068;2022-10-16T02:28:42;12.30;99.90
45096;DHT22;30858;51.108;8.068;2022-10-16T02:31:11;12.30;99.90
45096;DHT22;30858;51.108;8.068;2022-10-16T02:33:40;12.30;99.90
45096;DHT22;30858;51.108;8.068;2022-10-16T02:36:07;12.50;99.90
45096;DHT22;30858;51.108;8.068;2022-10-16T02:38:34;12.30;99.90
45096;DHT22;30858;51.108;8.068;2022-10-16T02:41:00;12.20;99.90
45096;DHT22;30858;51.108;8.068;2022-10-16T02:43:26;12.20;99.90
45096;DHT22;30858;51.108;8.068;2022-10-16T02:45:52;12.10;99.90
45096;DHT22;30858;51.108;8.068;2022-10-16T02:48:17;12.00;99.90
45096;DHT22;30858;51.108;8.068;2022-10-16T02:50:43;12.00;99.90
45096;DHT22;30858;51.108;8.068;2022-10-16T02:53:08;12.10;99.90
45096;DHT22;30858;51.108;8.068;2022-10-16T02:55:34;12.00;99.90
45096;DHT22;30858;51.108;8.068;2022-10-16T02:57:59;12.00;99.90
45096;DHT22;30858;51.108;8.068;2022-10-16T03:00:25;11.90;99.90
45096;DHT22;30858;51.108;8.068;2022-10-16T03:02:50;12.00;99.90
45096;DHT22;30858;51.108;8.068;2022-10-16T03:05:16;11.90;99.90
45096;DHT22;30858;51.108;8.068;2022-10-16T03:07:42;11.90;99.90
45096;DHT22;30858;51.108;8.068;2022-10-16T03:10:08;11.90;99.90
45096;DHT22;30858;51.108;8.068;2022-10-16T03:12:33;12.00;99.90
45096;DHT22;30858;51.108;8.068;2022-10-16T03:14:59;12.20;99.90
45096;DHT22;30858;51.108;8.068;2022-10-16T03:17:24;12.10;99.90
45096;DHT22;30858;51.108;8.068;2022-10-16T03:19:50;12.00;99.90
45096;DHT22;30858;51.108;8.068;2022-10-16T03:22:16;12.00;99.90
45096;DHT22;30858;51.108;8.068;2022-10-16T03:24:41;12.10;99.90
45096;DHT22;30858;51.108;8.068;2022-10-16T03:27:07;12.20;99.90
45096;DHT22;30858;51.108;8.068;2022-10-16T03:29:32;12.20;99.90
45096;DHT22;30858;51.108;8.068;2022-10-16T03:31:58;12.20;99.90
45096;DHT22;30858;51.108;8.068;2022-10-16T03:34:24;12.40;99.90
45096;DHT22;30858;51.108;8.068;2022-10-16T03:36:50;12.50;99.90
45096;DHT22;30858;51.108;8.068;2022-10-16T03:39:15;12.50;99.90
45096;DHT22;30858;51.108;8.068;2022-10-16T03:41:41;12.60;99.90
45096;DHT22;30858;51.108;8.068;2022-10-16T03:44:06;12.70;99.90
45096;DHT22;30858;51.108;8.068;2022-10-16T03:46:32;12.70;99.90
45096;DHT22;30858;51.108;8.068;2022-10-16T03:48:58;12.60;99.90
45096;DHT22;30858;51.108;8.068;2022-10-16T03:51:23;12.60;99.90
45096;DHT22;30858;51.108;8.068;2022-10-16T03:53:49;12.60;99.90
45096;DHT22;30858;51.108;8.068;2022-10-16T03:56:14;12.50;99.90
45096;DHT22;30858;51.108;8.068;2022-10-16T03:58:40;12.40;99.90
45096;DHT22;30858;51.108;8.068;2022-10-16T04:01:05;12.40;99.90
45096;DHT22;30858;51.108;8.068;2022-10-16T04:03:31;12.30;99.90
45096;DHT22;30858;51.108;8.068;2022-10-16T04:05:57;12.30;99.90
45096;DHT22;30858;51.108;8.068;2022-10-16T04:08:22;12.40;99.90
45096;DHT22;30858;51.108;8.068;2022-10-16T04:10:48;12.50;99.90
45096;DHT22;30858;51.108;8.068;2022-10-16T04:13:14;12.50;99.90
45096;DHT22;30858;51.108;8.068;2022-10-16T04:15:39;12.40;99.90
45096;DHT22;30858;51.108;8.068;2022-10-16T04:18:05;12.50;99.90
45096;DHT22;30858;51.108;8.068;2022-10-16T04:20:31;12.50;99.90
45096;DHT22;30858;51.108;8.068;2022-10-16T04:22:57;12.40;99.90
45096;DHT22;30858;51.108;8.068;2022-10-16T04:25:22;12.30;99.90
45096;DHT22;30858;51.108;8.068;2022-10-16T04:27:48;12.30;99.90
45096;DHT22;30858;51.108;8.068;2022-10-16T04:30:14;12.30;99.90
45096;DHT22;30858;51.108;8.068;2022-10-16T04:32:40;12.20;99.90
45096;DHT22;30858;51.108;8.068;2022-10-16T04:35:06;12.30;99.90
45096;DHT22;30858;51.108;8.068;2022-10-16T04:37:32;12.20;99.90
45096;DHT22;30858;51.108;8.068;2022-10-16T04:39:58;12.30;99.90
45096;DHT22;30858;51.108;8.068;2022-10-16T04:42:23;12.20;99.90
45096;DHT22;30858;51.108;8.068;2022-10-16T04:44:49;12.30;99.90
45096;DHT22;30858;51.108;8.068;2022-10-16T04:47:14;12.30;99.90
45096;DHT22;30858;51.108;8.068;2022-10-16T04:49:40;12.30;99.90
45096;DHT22;30858;51.108;8.068;2022-10-16T04:52:05;12.30;99.90
45096;DHT22;30858;51.108;8.068;2022-10-16T04:54:31;12.40;99.90
45096;DHT22;30858;51.108;8.068;2022-10-16T04:56:57;12.40;99.90
45096;DHT22;30858;51.108;8.068;2022-10-16T04:59:22;12.50;99.90
45096;DHT22;30858;51.108;8.068;2022-10-16T05:01:48;12.40;99.90
45096;DHT22;30858;51.108;8.068;2022-10-16T05:04:15;12.50;99.90
45096;DHT22;30858;51.108;8.068;2022-10-16T05:06:41;12.50;99.90
45096;DHT22;30858;51.108;8.068;2022-10-16T05:09:07;12.60;99.90
45096;DHT22;30858;51.108;8.068;2022-10-16T05:11:33;12.60;99.90
45096;DHT22;30858;51.108;8.068;2022-10-16T05:13:58;12.60;99.90
45096;DHT22;30858;51.108;8.068;2022-10-16T05:16:24;12.60;99.90
45096;DHT22;30858;51.108;8.068;2022-10-16T05:18:51;12.60;99.90
45096;DHT22;30858;51.108;8.068;2022-10-16T05:21:17;12.60;99.90
45096;DHT22;30858;51.108;8.068;2022-10-16T05:23:42;12.60;99.90
45096;DHT22;30858;51.108;8.068;2022-10-16T05:26:08;12.60;99.90
45096;DHT22;30858;51.108;8.068;2022-10-16T05:28:35;12.50;99.90
45096;DHT22;30858;51.108;8.068;2022-10-16T05:31:07;12.50;99.90
45096;DHT22;30858;51.108;8.068;2022-10-16T05:33:34;12.50;99.90
45096;DHT22;30858;51.108;8.068;2022-10-16T05:36:04;12.50;99.90
45096;DHT22;30858;51.108;8.068;2022-10-16T05:38:30;12.50;99.90
45096;DHT22;30858;51.108;8.068;2022-10-16T05:40:56;12.50;99.90
45096;DHT22;30858;51.108;8.068;2022-10-16T05:43:22;12.40;99.90
45096;DHT22;30858;51.108;8.068;2022-10-16T05:46:04;12.50;99.90
45096;DHT22;30858;51.108;8.068;2022-10-16T05:48:30;12.50;99.90
45096;DHT22;30858;51.108;8.068;2022-10-16T05:53:23;12.60;99.90
45096;DHT22;30858;51.108;8.068;2022-10-16T05:55:54;12.60;99.90
45096;DHT22;30858;51.108;8.068;2022-10-16T05:58:21;12.70;99.90
45096;DHT22;30858;51.108;8.068;2022-10-16T06:00:54;12.80;99.90
45096;DHT22;30858;51.108;8.068;2022-10-16T06:03:20;12.80;99.90
45096;DHT22;30858;51.108;8.068;2022-10-16T06:05:45;12.80;99.90
45096;DHT22;30858;51.108;8.068;2022-10-16T06:08:11;12.90;99.90
45096;DHT22;30858;51.108;8.068;2022-10-16T06:10:36;12.90;99.90
45096;DHT22;30858;51.108;8.068;2022-10-16T06:13:02;12.90;99.90
45096;DHT22;30858;51.108;8.068;2022-10-16T06:15:27;12.90;99.90
45096;DHT22;30858;51.108;8.068;2022-10-16T06:17:53;13.00;99.90
45096;DHT22;30858;51.108;8.068;2022-10-16T06:20:18;13.00;99.90
45096;DHT22;30858;51.108;8.068;2022-10-16T06:22:44;13.10;99.90
45096;DHT22;30858;51.108;8.068;2022-10-16T06:25:09;13.10;99.90
45096;DHT22;30858;51.108;8.068;2022-10-16T06:27:35;13.10;99.90
45096;DHT22;30858;51.108;8.068;2022-10-16T06:30:01;13.20;99.90
45096;DHT22;30858;51.108;8.068;2022-10-16T06:32:27;13.20;99.90
45096;DHT22;30858;51.108;8.068;2022-10-16T06:34:53;13.30;99.90
45096;DHT22;30858;51.108;8.068;2022-10-16T06:37:18;13.30;99.90
45096;DHT22;30858;51.108;8.068;2022-10-16T06:39:44;13.40;99.90
45096;DHT22;30858;51.108;8.068;2022-10-16T06:42:09;13.50;99.90
45096;DHT22;30858;51.108;8.068;2022-10-16T06:44:35;13.50;99.90
45096;DHT22;30858;51.108;8.068;2022-10-16T06:47:00;13.50;99.90
45096;DHT22;30858;51.108;8.068;2022-10-16T06:49:26;13.60;99.90
45096;DHT22;30858;51.108;8.068;2022-10-16T06:51:51;13.60;99.90
45096;DHT22;30858;51.108;8.068;2022-10-16T06:54:17;13.60;99.90
45096;DHT22;30858;51.108;8.068;2022-10-16T06:56:43;13.60;99.90
45096;DHT22;30858;51.108;8.068;2022-10-16T06:59:08;13.60;99.90
45096;DHT22;30858;51.108;8.068;2022-10-16T07:01:34;13.70;99.90
45096;DHT22;30858;51.108;8.068;2022-10-16T07:04:00;13.70;99.90
45096;DHT22;30858;51.108;8.068;2022-10-16T07:06:27;13.70;99.90
45096;DHT22;30858;51.108;8.068;2022-10-16T07:08:52;13.70;99.90
45096;DHT22;30858;51.108;8.068;2022-10-16T07:11:20;13.70;99.90
45096;DHT22;30858;51.108;8.068;2022-10-16T07:13:47;13.70;99.90
45096;DHT22;30858;51.108;8.068;2022-10-16T07:16:18;13.80;99.90
45096;DHT22;30858;51.108;8.068;2022-10-16T07:18:44;13.90;99.90
45096;DHT22;30858;51.108;8.068;2022-10-16T07:21:18;13.90;99.90
45096;DHT22;30858;51.108;8.068;2022-10-16T07:23:44;13.90;99.90
45096;DHT22;30858;51.108;8.068;2022-10-16T07:26:10;13.90;99.90
45096;DHT22;30858;51.108;8.068;2022-10-16T07:28:36;14.00;99.90
45096;DHT22;30858;51.108;8.068;2022-10-16T07:31:07;14.00;99.90
45096;DHT22;30858;51.108;8.068;2022-10-16T07:33:34;14.10;99.90
45096;DHT22;30858;51.108;8.068;2022-10-16T07:36:00;14.10;99.90
45096;DHT22;30858;51.108;8.068;2022-10-16T07:38:26;14.20;99.90
45096;DHT22;30858;51.108;8.068;2022-10-16T07:40:58;14.20;99.90
45096;DHT22;30858;51.108;8.068;2022-10-16T07:43:25;14.30;99.90
45096;DHT22;30858;51.108;8.068;2022-10-16T07:45:51;14.40;99.90
45096;DHT22;30858;51.108;8.068;2022-10-16T07:48:17;14.40;99.90
45096;DHT22;30858;51.108;8.068;2022-10-16T07:50:44;14.40;99.90
45096;DHT22;30858;51.108;8.068;2022-10-16T07:53:10;14.40;99.90
45096;DHT22;30858;51.108;8.068;2022-10-16T07:55:36;14.50;99.90
45096;DHT22;30858;51.108;8.068;2022-10-16T07:58:01;14.60;99.90
45096;DHT22;30858;51.108;8.068;2022-10-16T08:00:27;14.70;99.90
45096;DHT22;30858;51.108;8.068;2022-10-16T08:02:52;14.80;99.90
45096;DHT22;30858;51.108;8.068;2022-10-16T08:05:18;14.70;99.90
45096;DHT22;30858;51.108;8.068;2022-10-16T08:07:48;14.70;99.90
45096;DHT22;30858;51.108;8.068;2022-10-16T08:10:19;14.80;99.90
45096;DHT22;30858;51.108;8.068;2022-10-16T08:12:45;15.00;99.90
45096;DHT22;30858;51.108;8.068;2022-10-16T08:15:10;15.30;99.90
45096;DHT22;30858;51.108;8.068;2022-10-16T08:17:37;15.60;99.90
45096;DHT22;30858;51.108;8.068;2022-10-16T08:22:30;15.70;99.90
45096;DHT22;30858;51.108;8.068;2022-10-16T08:24:56;15.70;99.90
45096;DHT22;30858;51.108;8.068;2022-10-16T08:27:22;15.80;99.90
45096;DHT22;30858;51.108;8.068;2022-10-16T08:29:51;15.70;99.90
45096;DHT22;30858;51.108;8.068;2022-10-16T08:32:16;15.60;99.90
45096;DHT22;30858;51.108;8.068;2022-10-16T08:34:42;15.60;99.90
45096;DHT22;30858;51.108;8.068;2022-10-16T08:37:07;15.40;99.90
45096;DHT22;30858;51.108;8.068;2022-10-16T08:39:36;15.30;99.90
45096;DHT22;30858;51.108;8.068;2022-10-16T08:42:20;15.40;99.90
45096;DHT22;30858;51.108;8.068;2022-10-16T08:45:21;15.50;99.90
45096;DHT22;30858;51.108;8.068;2022-10-16T08:47:49;15.70;99.90
45096;DHT22;30858;51.108;8.068;2022-10-16T08:50:28;15.70;99.90
45096;DHT22;30858;51.108;8.068;2022-10-16T08:52:55;15.50;99.90
45096;DHT22;30858;51.108;8.068;2022-10-16T08:55:37;15.50;99.90
45096;DHT22;30858;51.108;8.068;2022-10-16T08:58:27;15.60;99.90
45096;DHT22;30858;51.108;8.068;2022-10-16T09:00:55;15.70;99.90
45096;DHT22;30858;51.108;8.068;2022-10-16T09:06:21;16.10;99.90
45096;DHT22;30858;51.108;8.068;2022-10-16T09:17:32;18.10;99.90
45096;DHT22;30858;51.108;8.068;2022-10-16T09:20:15;18.40;99.90
45096;DHT22;30858;51.108;8.068;2022-10-16T09:22:41;18.80;99.90
45096;DHT22;30858;51.108;8.068;2022-10-16T09:25:16;19.10;99.90
45096;DHT22;30858;51.108;8.068;2022-10-16T09:27:45;19.20;99.90
45096;DHT22;30858;51.108;8.068;2022-10-16T09:30:14;19.20;99.90
45096;DHT22;30858;51.108;8.068;2022-10-16T09:32:41;19.30;99.90
45096;DHT22;30858;51.108;8.068;2022-10-16T09:35:15;19.60;99.90
45096;DHT22;30858;51.108;8.068;2022-10-16T09:37:44;20.20;99.90
45096;DHT22;30858;51.108;8.068;2022-10-16T09:40:25;20.60;99.90
45096;DHT22;30858;51.108;8.068;2022-10-16T09:42:58;20.80;99.90
45096;DHT22;30858;51.108;8.068;2022-10-16T09:45:26;20.60;99.90
45096;DHT22;30858;51.108;8.068;2022-10-16T09:47:53;20.40;99.90
45096;DHT22;30858;51.108;8.068;2022-10-16T09:50:28;20.00;99.90
45096;DHT22;30858;51.108;8.068;2022-10-16T09:53:13;19.70;99.90
45096;DHT22;30858;51.108;8.068;2022-10-16T09:55:52;19.00;99.90
45096;DHT22;30858;51.108;8.068;2022-10-16T09:58:22;18.70;99.90
45096;DHT22;30858;51.108;8.068;2022-10-16T10:00:50;18.60;99.90
45096;DHT22;30858;51.108;8.068;2022-10-16T10:03:37;19.40;99.90
45096;DHT22;30858;51.108;8.068;2022-10-16T10:08:58;19.00;99.90
45096;DHT22;30858;51.108;8.068;2022-10-16T10:11:51;19.10;99.90
45096;DHT22;30858;51.108;8.068;2022-10-16T10:17:01;20.30;99.90
45096;DHT22;30858;51.108;8.068;2022-10-16T10:19:27;20.50;99.90
45096;DHT22;30858;51.108;8.068;2022-10-16T10:21:53;20.90;99.90
45096;DHT22;30858;51.108;8.068;2022-10-16T10:24:19;20.50;99.90
45096;DHT22;30858;51.108;8.068;2022-10-16T10:26:49;20.60;99.90
45096;DHT22;30858;51.108;8.068;2022-10-16T10:29:43;20.80;99.90
45096;DHT22;30858;51.108;8.068;2022-10-16T10:32:28;20.20;99.90
45096;DHT22;30858;51.108;8.068;2022-10-16T10:54:56;19.00;99.90
45096;DHT22;30858;51.108;8.068;2022-10-16T10:57:29;19.00;99.90
45096;DHT22;30858;51.108;8.068;2022-10-16T11:02:46;18.90;99.90
45096;DHT22;30858;51.108;8.068;2022-10-16T11:07:51;18.70;99.90
45096;DHT22;30858;51.108;8.068;2022-10-16T11:10:24;18.80;99.90
45096;DHT22;30858;51.108;8.068;2022-10-16T11:12:56;19.50;99.90
45096;DHT22;30858;51.108;8.068;2022-10-16T11:15:32;19.40;99.90
45096;DHT22;30858;51.108;8.068;2022-10-16T11:20:53;19.40;99.90
45096;DHT22;30858;51.108;8.068;2022-10-16T11:26:00;20.10;99.90
45096;DHT22;30858;51.108;8.068;2022-10-16T11:28:35;20.10;99.90
45096;DHT22;30858;51.108;8.068;2022-10-16T11:37:14;20.80;99.90
45096;DHT22;30858;51.108;8.068;2022-10-16T11:39:43;20.90;99.90
45096;DHT22;30858;51.108;8.068;2022-10-16T11:42:22;20.80;99.90
45096;DHT22;30858;51.108;8.068;2022-10-16T11:47:51;20.50;99.90
45096;DHT22;30858;51.108;8.068;2022-10-16T11:50:31;20.20;99.90
45096;DHT22;30858;51.108;8.068;2022-10-16T11:53:11;20.40;99.90
45096;DHT22;30858;51.108;8.068;2022-10-16T11:55:44;20.30;99.90
45096;DHT22;30858;51.108;8.068;2022-10-16T12:08:49;19.60;99.90
45096;DHT22;30858;51.108;8.068;2022-10-16T12:14:32;19.70;99.90
45096;DHT22;30858;51.108;8.068;2022-10-16T12:17:01;19.70;99.90
45096;DHT22;30858;51.108;8.068;2022-10-16T12:19:31;19.50;99.90
45096;DHT22;30858;51.108;8.068;2022-10-16T12:21:59;19.80;99.90
45096;DHT22;30858;51.108;8.068;2022-10-16T12:24:41;19.70;99.90
45096;DHT22;30858;51.108;8.068;2022-10-16T12:27:29;20.00;99.90
45096;DHT22;30858;51.108;8.068;2022-10-16T12:29:59;19.90;99.90
45096;DHT22;30858;51.108;8.068;2022-10-16T12:32:30;19.70;99.90
45096;DHT22;30858;51.108;8.068;2022-10-16T12:34:57;19.60;99.90
45096;DHT22;30858;51.108;8.068;2022-10-16T12:37:26;19.60;99.90
45096;DHT22;30858;51.108;8.068;2022-10-16T12:39:53;19.70;99.90
45096;DHT22;30858;51.108;8.068;2022-10-16T12:44:53;19.40;99.90
45096;DHT22;30858;51.108;8.068;2022-10-16T12:47:22;19.30;99.90
45096;DHT22;30858;51.108;8.068;2022-10-16T12:49:51;19.70;99.90
45096;DHT22;30858;51.108;8.068;2022-10-16T12:52:43;19.90;99.90
45096;DHT22;30858;51.108;8.068;2022-10-16T12:55:16;20.20;99.90
45096;DHT22;30858;51.108;8.068;2022-10-16T13:00:56;20.50;99.90
45096;DHT22;30858;51.108;8.068;2022-10-16T13:17:36;20.50;99.90
45096;DHT22;30858;51.108;8.068;2022-10-16T13:20:30;21.00;99.90
45096;DHT22;30858;51.108;8.068;2022-10-16T13:23:17;21.00;99.90
45096;DHT22;30858;51.108;8.068;2022-10-16T13:28:29;20.60;99.90
45096;DHT22;30858;51.108;8.068;2022-10-16T13:30:58;20.60;99.90
45096;DHT22;30858;51.108;8.068;2022-10-16T13:33:37;20.30;99.90
45096;DHT22;30858;51.108;8.068;2022-10-16T13:36:05;20.20;99.90
45096;DHT22;30858;51.108;8.068;2022-10-16T13:38:33;20.40;99.90
45096;DHT22;30858;51.108;8.068;2022-10-16T13:41:00;20.40;99.90
45096;DHT22;30858;51.108;8.068;2022-10-16T13:43:34;20.50;99.90
45096;DHT22;30858;51.108;8.068;2022-10-16T13:46:05;20.30;99.90
45096;DHT22;30858;51.108;8.068;2022-10-16T13:48:32;20.70;99.90
45096;DHT22;30858;51.108;8.068;2022-10-16T13:51:05;20.80;99.90
45096;DHT22;30858;51.108;8.068;2022-10-16T13:53:34;20.70;99.90
45096;DHT22;30858;51.108;8.068;2022-10-16T13:56:01;20.50;99.90
45096;DHT22;30858;51.108;8.068;2022-10-16T13:58:27;20.40;99.90
45096;DHT22;30858;51.108;8.068;2022-10-16T14:00:58;20.10;99.90
45096;DHT22;30858;51.108;8.068;2022-10-16T14:03:25;20.00;99.90
45096;DHT22;30858;51.108;8.068;2022-10-16T14:05:52;20.00;99.90
45096;DHT22;30858;51.108;8.068;2022-10-16T14:08:18;20.00;99.90
45096;DHT22;30858;51.108;8.068;2022-10-16T14:10:48;19.80;99.90
45096;DHT22;30858;51.108;8.068;2022-10-16T14:13:18;19.60;99.90
45096;DHT22;30858;51.108;8.068;2022-10-16T14:15:47;19.40;99.90
45096;DHT22;30858;51.108;8.068;2022-10-16T14:18:20;19.30;99.90
45096;DHT22;30858;51.108;8.068;2022-10-16T14:20:46;19.00;99.90
45096;DHT22;30858;51.108;8.068;2022-10-16T14:23:22;18.90;99.90
45096;DHT22;30858;51.108;8.068;2022-10-16T14:25:48;18.60;99.90
45096;DHT22;30858;51.108;8.068;2022-10-16T14:28:19;18.60;99.90
45096;DHT22;30858;51.108;8.068;2022-10-16T14:30:54;18.60;99.90
45096;DHT22;30858;51.108;8.068;2022-10-16T14:35:46;18.60;99.90
45096;DHT22;30858;51.108;8.068;2022-10-16T14:38:21;18.70;99.90
45096;DHT22;30858;51.108;8.068;2022-10-16T14:40:48;18.60;99.90
45096;DHT22;30858;51.108;8.068;2022-10-16T14:43:22;18.70;99.90
45096;DHT22;30858;51.108;8.068;2022-10-16T14:45:53;18.70;99.90
45096;DHT22;30858;51.108;8.068;2022-10-16T14:48:20;18.70;99.90
45096;DHT22;30858;51.108;8.068;2022-10-16T14:50:46;18.70;99.90
45096;DHT22;30858;51.108;8.068;2022-10-16T14:53:12;18.80;99.90
45096;DHT22;30858;51.108;8.068;2022-10-16T14:55:38;18.90;99.90
45096;DHT22;30858;51.108;8.068;2022-10-16T14:58:05;18.90;99.90
45096;DHT22;30858;51.108;8.068;2022-10-16T15:00:31;19.00;99.90
45096;DHT22;30858;51.108;8.068;2022-10-16T15:02:56;19.10;99.90
45096;DHT22;30858;51.108;8.068;2022-10-16T15:05:24;19.30;99.90
45096;DHT22;30858;51.108;8.068;2022-10-16T15:07:52;19.20;99.90
45096;DHT22;30858;51.108;8.068;2022-10-16T15:10:20;19.00;99.90
45096;DHT22;30858;51.108;8.068;2022-10-16T15:12:46;19.10;99.90
45096;DHT22;30858;51.108;8.068;2022-10-16T15:15:37;18.90;99.90
45096;DHT22;30858;51.108;8.068;2022-10-16T15:18:03;18.90;99.90
45096;DHT22;30858;51.108;8.068;2022-10-16T15:20:34;18.70;99.90
45096;DHT22;30858;51.108;8.068;2022-10-16T15:23:14;18.60;99.90
45096;DHT22;30858;51.108;8.068;2022-10-16T15:25:46;18.50;99.90
45096;DHT22;30858;51.108;8.068;2022-10-16T15:28:13;18.30;99.90
45096;DHT22;30858;51.108;8.068;2022-10-16T15:30:39;18.20;99.90
45096;DHT22;30858;51.108;8.068;2022-10-16T15:33:08;18.10;99.90
45096;DHT22;30858;51.108;8.068;2022-10-16T15:35:35;18.00;99.90
45096;DHT22;30858;51.108;8.068;2022-10-16T15:38:00;18.10;99.90
45096;DHT22;30858;51.108;8.068;2022-10-16T15:40:26;18.10;99.90
45096;DHT22;30858;51.108;8.068;2022-10-16T15:42:51;17.90;99.90
45096;DHT22;30858;51.108;8.068;2022-10-16T15:45:17;17.80;99.90
45096;DHT22;30858;51.108;8.068;2022-10-16T15:47:44;17.80;99.90
45096;DHT22;30858;51.108;8.068;2022-10-16T15:50:14;17.80;99.90
45096;DHT22;30858;51.108;8.068;2022-10-16T15:52:41;17.80;99.90
45096;DHT22;30858;51.108;8.068;2022-10-16T15:55:11;17.70;99.90
45096;DHT22;30858;51.108;8.068;2022-10-16T15:57:37;17.70;99.90
45096;DHT22;30858;51.108;8.068;2022-10-16T16:00:11;17.50;99.90
45096;DHT22;30858;51.108;8.068;2022-10-16T16:02:36;17.40;99.90
45096;DHT22;30858;51.108;8.068;2022-10-16T16:05:03;17.30;99.90
45096;DHT22;30858;51.108;8.068;2022-10-16T16:07:32;17.20;99.90
45096;DHT22;30858;51.108;8.068;2022-10-16T16:09:57;17.10;99.90
45096;DHT22;30858;51.108;8.068;2022-10-16T16:12:23;17.00;99.90
45096;DHT22;30858;51.108;8.068;2022-10-16T16:14:48;16.90;99.90
45096;DHT22;30858;51.108;8.068;2022-10-16T16:17:14;16.90;99.90
45096;DHT22;30858;51.108;8.068;2022-10-16T16:19:40;16.70;99.90
45096;DHT22;30858;51.108;8.068;2022-10-16T16:22:05;16.60;99.90
45096;DHT22;30858;51.108;8.068;2022-10-16T16:24:31;16.60;99.90
45096;DHT22;30858;51.108;8.068;2022-10-16T16:26:56;16.40;99.90
45096;DHT22;30858;51.108;8.068;2022-10-16T16:29:22;16.50;99.90
45096;DHT22;30858;51.108;8.068;2022-10-16T16:31:47;16.40;99.90
45096;DHT22;30858;51.108;8.068;2022-10-16T16:34:13;16.30;99.90
45096;DHT22;30858;51.108;8.068;2022-10-16T16:36:39;16.20;99.90
45096;DHT22;30858;51.108;8.068;2022-10-16T16:39:06;16.30;99.90
45096;DHT22;30858;51.108;8.068;2022-10-16T16:41:31;16.20;99.90
45096;DHT22;30858;51.108;8.068;2022-10-16T16:44:05;16.20;99.90
45096;DHT22;30858;51.108;8.068;2022-10-16T16:46:33;16.20;99.90
45096;DHT22;30858;51.108;8.068;2022-10-16T16:49:00;16.10;99.90
45096;DHT22;30858;51.108;8.068;2022-10-16T16:51:25;16.00;99.90
45096;DHT22;30858;51.108;8.068;2022-10-16T16:53:53;16.00;99.90
45096;DHT22;30858;51.108;8.068;2022-10-16T16:56:20;16.00;99.90
45096;DHT22;30858;51.108;8.068;2022-10-16T16:58:47;16.00;99.90
45096;DHT22;30858;51.108;8.068;2022-10-16T17:01:13;16.00;99.90
45096;DHT22;30858;51.108;8.068;2022-10-16T17:03:42;16.00;99.90
45096;DHT22;30858;51.108;8.068;2022-10-16T17:06:10;16.00;99.90
45096;DHT22;30858;51.108;8.068;2022-10-16T17:08:36;15.90;99.90
45096;DHT22;30858;51.108;8.068;2022-10-16T17:11:02;16.00;99.90
45096;DHT22;30858;51.108;8.068;2022-10-16T17:13:30;16.00;99.90
45096;DHT22;30858;51.108;8.068;2022-10-16T17:15:56;16.00;99.90
45096;DHT22;30858;51.108;8.068;2022-10-16T17:18:23;16.00;99.90
45096;DHT22;30858;51.108;8.068;2022-10-16T17:20:49;16.00;99.90
45096;DHT22;30858;51.108;8.068;2022-10-16T17:23:17;15.90;99.90
45096;DHT22;30858;51.108;8.068;2022-10-16T17:25:43;15.90;99.90
45096;DHT22;30858;51.108;8.068;2022-10-16T17:28:10;15.80;99.90
45096;DHT22;30858;51.108;8.068;2022-10-16T17:30:39;15.80;99.90
45096;DHT22;30858;51.108;8.068;2022-10-16T17:33:06;15.70;99.90
45096;DHT22;30858;51.108;8.068;2022-10-16T17:35:40;15.60;99.90